Time;durP1;ratioP1;P1;durP2;ratioP2;P2;SDS_P1;SDS_P2;PMS_P1;PMS_P2;Temp;Humidity;BMP_temperature;BMP_pressure;BME280_temperature;BME280_humidity;BME280_pressure;Samples;Min_cycle;Max_cycle;Signal;HPM_P1;HPM_P2
2023/04/30 00:02:14;;;;;;;10.37;5.37;;;;;;;;;;5030665;28;20425;-68
2023/04/30 00:04:41;;;;;;;10.67;5.33;;;;;;;;;;5028709;28;20448;-68
2023/04/30 00:07:07;;;;;;;9.67;5.30;;;;;;;;;;5020984;28;20192;-68
2023/04/30 00:09:34;;;;;;;10.13;5.07;;;;;;;;;;5011224;28;20184;-68
2023/04/30 00:12:02;;;;;;;7.63;4.20;;;;;;;;;;5027299;28;20211;-68
2023/04/30 00:14:29;;;;;;;10.50;4.90;;;;;;;;;;5030567;28;20193;-68
2023/04/30 00:16:55;;;;;;;8.73;4.73;;;;;;;;;;5030411;28;20470;-68
2023/04/30 00:19:22;;;;;;;7.10;3.70;;;;;;;;;;5031086;28;20769;-68
2023/04/30 00:21:49;;;;;;;10.83;4.30;;;;;;;;;;5030510;28;20187;-68
2023/04/30 00:24:15;;;;;;;9.93;4.23;;;;;;;;;;5030525;28;20462;-68
2023/04/30 00:26:42;;;;;;;10.30;3.60;;;;;;;;;;5030532;28;20434;-68
2023/04/30 00:29:11;;;;;;;7.13;3.47;;;;;;;;;;5030944;28;20422;-68
2023/04/30 00:31:38;;;;;;;7.10;3.53;;;;;;;;;;5030612;28;20457;-68
2023/04/30 00:34:05;;;;;;;9.20;4.03;;;;;;;;;;5012812;28;20257;-68
2023/04/30 00:36:32;;;;;;;9.73;3.97;;;;;;;;;;5030503;28;20434;-68
2023/04/30 00:38:58;;;;;;;7.43;3.50;;;;;;;;;;5030437;28;20463;-68
2023/04/30 00:41:25;;;;;;;7.07;3.40;;;;;;;;;;5012061;28;20524;-68
2023/04/30 00:43:52;;;;;;;9.00;3.33;;;;;;;;;;5012764;28;20447;-68
2023/04/30 00:46:18;;;;;;;11.73;3.87;;;;;;;;;;5030399;28;20448;-68
2023/04/30 00:48:45;;;;;;;7.63;3.30;;;;;;;;;;5029666;28;20435;-68
2023/04/30 00:51:12;;;;;;;5.57;3.60;;;;;;;;;;5029960;28;20444;-68
2023/04/30 00:53:39;;;;;;;5.47;3.13;;;;;;;;;;4995195;28;20446;-68
2023/04/30 00:56:07;;;;;;;8.57;3.43;;;;;;;;;;5012027;28;20446;-68
2023/04/30 00:58:35;;;;;;;7.67;3.30;;;;;;;;;;5013006;28;20756;-68
2023/04/30 01:01:02;;;;;;;5.87;3.43;;;;;;;;;;5029747;28;20523;-68
2023/04/30 01:03:29;;;;;;;7.90;3.00;;;;;;;;;;5011950;28;20434;-68
2023/04/30 01:05:56;;;;;;;6.90;3.50;;;;;;;;;;5010251;28;20198;-69
2023/04/30 01:08:23;;;;;;;7.57;2.80;;;;;;;;;;5010756;28;21152;-69
2023/04/30 01:10:55;;;;;;;7.63;2.90;;;;;;;;;;5010288;28;20988;-68
2023/04/30 01:13:26;;;;;;;9.10;2.70;;;;;;;;;;5011175;28;20476;-68
2023/04/30 01:15:59;;;;;;;11.77;2.93;;;;;;;;;;4993887;28;20493;-69
2023/04/30 01:18:39;;;;;;;8.97;3.10;;;;;;;;;;5011133;28;20540;-67
2023/04/30 01:21:06;;;;;;;6.37;2.67;;;;;;;;;;5010044;28;20568;-69
2023/04/30 01:23:36;;;;;;;10.50;3.43;;;;;;;;;;5011977;28;20441;-68
2023/04/30 01:26:02;;;;;;;10.13;3.00;;;;;;;;;;5029298;28;20434;-68
2023/04/30 01:28:29;;;;;;;11.67;3.27;;;;;;;;;;5012104;28;20434;-68
2023/04/30 01:30:57;;;;;;;7.80;2.80;;;;;;;;;;5011852;28;20762;-68
2023/04/30 01:33:24;;;;;;;9.03;2.70;;;;;;;;;;5012434;28;20918;-68
2023/04/30 01:35:51;;;;;;;7.37;2.57;;;;;;;;;;5029301;28;20438;-67
2023/04/30 01:38:17;;;;;;;5.03;2.63;;;;;;;;;;5023625;28;21011;-68
2023/04/30 01:40:50;;;;;;;7.50;3.27;;;;;;;;;;5029148;28;20440;-68
2023/04/30 02:19:14;;;;;;;5.83;2.10;;;;;;;;;;5007798;28;21005;-68
2023/04/30 02:21:40;;;;;;;10.53;2.67;;;;;;;;;;5007971;28;20446;-68
2023/04/30 02:24:07;;;;;;;9.00;3.43;;;;;;;;;;5008931;28;20454;-68
2023/04/30 02:26:34;;;;;;;6.37;2.20;;;;;;;;;;5005189;28;20463;-68
2023/04/30 02:29:00;;;;;;;6.20;2.37;;;;;;;;;;5008821;28;20439;-68
2023/04/30 02:31:27;;;;;;;8.27;2.30;;;;;;;;;;4990266;28;20992;-68
2023/04/30 02:33:54;;;;;;;8.00;2.37;;;;;;;;;;5008937;28;20427;-68
2023/04/30 02:36:21;;;;;;;6.30;2.63;;;;;;;;;;5007947;28;21171;-68
2023/04/30 02:38:47;;;;;;;8.40;2.60;;;;;;;;;;5008513;28;20427;-68
2023/04/30 02:41:14;;;;;;;5.10;2.40;;;;;;;;;;5008350;28;20433;-68
2023/04/30 02:43:41;;;;;;;6.80;2.50;;;;;;;;;;5008071;28;20486;-68
2023/04/30 02:46:07;;;;;;;8.57;2.90;;;;;;;;;;4990232;28;20450;-68
2023/04/30 02:48:34;;;;;;;6.77;2.77;;;;;;;;;;4991025;28;20438;-68
2023/04/30 02:51:01;;;;;;;6.37;2.20;;;;;;;;;;5006453;28;20459;-68
2023/04/30 02:53:28;;;;;;;6.57;2.30;;;;;;;;;;5008126;28;20554;-68
2023/04/30 02:55:55;;;;;;;6.83;2.20;;;;;;;;;;5008646;28;20431;-68
2023/04/30 02:58:21;;;;;;;6.07;2.30;;;;;;;;;;4991138;28;20439;-68
2023/04/30 03:00:49;;;;;;;6.17;2.40;;;;;;;;;;5008164;28;20423;-68
2023/04/30 03:03:16;;;;;;;8.80;2.20;;;;;;;;;;4990479;28;20791;-68
2023/04/30 03:05:42;;;;;;;8.17;2.67;;;;;;;;;;4989832;28;20513;-68
2023/04/30 03:08:09;;;;;;;4.97;2.00;;;;;;;;;;4989604;28;20455;-68
2023/04/30 03:10:36;;;;;;;4.47;2.20;;;;;;;;;;4990631;28;20442;-68
2023/04/30 03:13:02;;;;;;;8.13;2.40;;;;;;;;;;4990997;28;20489;-68
2023/04/30 03:15:31;;;;;;;4.57;2.27;;;;;;;;;;5012010;28;20485;-68
2023/04/30 03:17:57;;;;;;;7.43;2.53;;;;;;;;;;5001293;28;20478;-68
2023/04/30 03:20:24;;;;;;;7.47;2.33;;;;;;;;;;5009952;28;20461;-68
2023/04/30 03:22:51;;;;;;;5.67;2.27;;;;;;;;;;5011164;28;20550;-68
2023/04/30 03:25:17;;;;;;;7.13;2.10;;;;;;;;;;5010738;28;20509;-68
2023/04/30 03:27:44;;;;;;;14.70;2.50;;;;;;;;;;5011834;28;20481;-67
2023/04/30 03:30:11;;;;;;;7.33;2.50;;;;;;;;;;5010636;28;21188;-68
2023/04/30 03:32:37;;;;;;;6.90;2.10;;;;;;;;;;5010699;28;20597;-68
2023/04/30 03:35:04;;;;;;;5.70;2.30;;;;;;;;;;5010737;28;20461;-67
2023/04/30 03:37:32;;;;;;;8.67;2.47;;;;;;;;;;5011046;28;20457;-68
2023/04/30 03:39:58;;;;;;;9.30;2.77;;;;;;;;;;5010511;28;20457;-68
2023/04/30 03:42:25;;;;;;;5.00;2.33;;;;;;;;;;5011686;28;20435;-68
2023/04/30 03:44:53;;;;;;;11.93;2.77;;;;;;;;;;5011068;28;21002;-68
2023/04/30 03:47:19;;;;;;;6.40;2.40;;;;;;;;;;4994264;28;20443;-68
2023/04/30 03:49:53;;;;;;;9.80;2.50;;;;;;;;;;5010684;28;20437;-68
2023/04/30 03:52:21;;;;;;;8.83;2.53;;;;;;;;;;5009364;28;20577;-68
2023/04/30 03:54:48;;;;;;;11.90;3.37;;;;;;;;;;4993095;28;20480;-68
2023/04/30 03:57:16;;;;;;;8.73;2.30;;;;;;;;;;4994708;28;20435;-68
2023/04/30 03:59:43;;;;;;;7.20;2.77;;;;;;;;;;5011494;28;20427;-68
2023/04/30 04:02:10;;;;;;;11.03;2.60;;;;;;;;;;5011414;28;20862;-68
2023/04/30 04:04:37;;;;;;;10.87;2.20;;;;;;;;;;5010341;28;20435;-68
2023/04/30 04:07:06;;;;;;;9.37;2.40;;;;;;;;;;5011329;28;20482;-68
2023/04/30 04:09:33;;;;;;;6.93;2.63;;;;;;;;;;5004486;28;20442;-68
2023/04/30 04:12:02;;;;;;;7.90;2.40;;;;;;;;;;4998886;28;20478;-68
2023/04/30 04:14:30;;;;;;;9.50;2.43;;;;;;;;;;5009667;28;20513;-68
2023/04/30 04:16:58;;;;;;;12.80;2.90;;;;;;;;;;5011429;28;20434;-69
2023/04/30 04:19:25;;;;;;;6.57;2.53;;;;;;;;;;5011839;28;20446;-68
2023/04/30 04:21:52;;;;;;;7.00;2.10;;;;;;;;;;5011799;28;20438;-68
2023/04/30 04:24:19;;;;;;;9.57;2.50;;;;;;;;;;5011457;28;20226;-68
2023/04/30 04:26:46;;;;;;;6.13;2.07;;;;;;;;;;5011717;28;20200;-68
2023/04/30 04:29:13;;;;;;;9.03;2.20;;;;;;;;;;5011646;28;20203;-68
2023/04/30 04:31:41;;;;;;;5.33;2.10;;;;;;;;;;5012161;28;20265;-68
2023/04/30 04:34:09;;;;;;;7.97;2.30;;;;;;;;;;5011148;28;20223;-68
2023/04/30 04:36:36;;;;;;;8.73;2.10;;;;;;;;;;5011549;28;20238;-68
2023/04/30 04:39:02;;;;;;;11.43;2.70;;;;;;;;;;5011707;28;20195;-68
2023/04/30 04:41:29;;;;;;;7.17;2.40;;;;;;;;;;5010616;28;20267;-69
2023/04/30 04:43:56;;;;;;;8.00;2.47;;;;;;;;;;4991575;28;20447;-68
2023/04/30 04:46:23;;;;;;;6.70;1.90;;;;;;;;;;5020737;28;20556;-68
2023/04/30 04:48:52;;;;;;;9.73;2.83;;;;;;;;;;5011359;28;20203;-68
2023/04/30 04:51:19;;;;;;;8.20;2.87;;;;;;;;;;5011927;28;20187;-69
2023/04/30 04:53:47;;;;;;;9.07;2.53;;;;;;;;;;5011150;28;20227;-68
2023/04/30 04:56:13;;;;;;;7.03;2.20;;;;;;;;;;5011543;28;20184;-68
2023/04/30 04:58:40;;;;;;;7.43;2.60;;;;;;;;;;5028549;28;20199;-68
2023/04/30 05:01:08;;;;;;;8.30;2.93;;;;;;;;;;5010044;28;20286;-73
2023/04/30 05:03:36;;;;;;;9.17;2.70;;;;;;;;;;5028587;28;20655;-69
2023/04/30 05:06:03;;;;;;;7.90;2.80;;;;;;;;;;5002100;28;20249;-68
2023/04/30 05:08:30;;;;;;;9.43;2.70;;;;;;;;;;5023325;28;20191;-69
2023/04/30 05:11:02;;;;;;;8.07;2.70;;;;;;;;;;4996938;28;20223;-68
2023/04/30 05:13:33;;;;;;;8.70;3.00;;;;;;;;;;5008286;28;20219;-68
2023/04/30 05:15:59;;;;;;;9.13;2.23;;;;;;;;;;5024602;28;20231;-68
2023/04/30 05:18:26;;;;;;;9.83;2.90;;;;;;;;;;4859020;28;4829439;-67
2023/04/30 05:20:53;;;;;;;12.90;3.27;;;;;;;;;;5014002;28;20564;-68
2023/04/30 05:23:20;;;;;;;9.37;2.83;;;;;;;;;;5007318;28;20202;-68
2023/04/30 05:25:50;;;;;;;8.63;2.63;;;;;;;;;;5018631;28;20205;-69
2023/04/30 05:28:19;;;;;;;7.93;2.60;;;;;;;;;;5009758;28;20542;-69
2023/04/30 05:30:46;;;;;;;9.23;3.07;;;;;;;;;;5014615;28;20247;-69
2023/04/30 05:33:13;;;;;;;8.30;2.80;;;;;;;;;;5005050;28;20207;-68
2023/04/30 05:35:41;;;;;;;12.37;3.70;;;;;;;;;;5023258;28;21037;-68
2023/04/30 05:38:08;;;;;;;11.17;2.87;;;;;;;;;;4993288;28;20288;-69
2023/04/30 05:40:35;;;;;;;11.40;3.30;;;;;;;;;;5023951;28;20215;-69
2023/04/30 05:43:01;;;;;;;10.13;2.90;;;;;;;;;;5034942;28;20194;-67
2023/04/30 05:45:28;;;;;;;10.37;3.23;;;;;;;;;;5008605;28;20187;-66
2023/04/30 05:47:55;;;;;;;10.87;3.10;;;;;;;;;;5006949;28;20180;-66
2023/04/30 05:50:23;;;;;;;9.57;2.97;;;;;;;;;;5018904;28;20211;-66
2023/04/30 05:52:50;;;;;;;9.23;3.03;;;;;;;;;;5019916;28;20219;-68
2023/04/30 05:55:17;;;;;;;12.23;3.57;;;;;;;;;;5020966;28;20199;-67
2023/04/30 05:57:45;;;;;;;8.50;2.70;;;;;;;;;;5024891;28;20188;-66
2023/04/30 06:00:12;;;;;;;10.43;3.00;;;;;;;;;;5021822;28;20187;-68
2023/04/30 06:02:40;;;;;;;10.87;3.03;;;;;;;;;;5008745;28;20176;-66
2023/04/30 06:05:07;;;;;;;6.67;2.90;;;;;;;;;;5025582;28;20195;-67
2023/04/30 06:07:34;;;;;;;12.73;3.50;;;;;;;;;;5024817;28;20930;-67
2023/04/30 06:10:01;;;;;;;9.60;2.90;;;;;;;;;;5027524;28;20188;-68
2023/04/30 06:12:28;;;;;;;10.07;2.70;;;;;;;;;;5028993;28;20198;-67
2023/04/30 06:14:55;;;;;;;11.33;2.60;;;;;;;;;;5025178;28;20306;-67
2023/04/30 06:17:22;;;;;;;8.20;3.00;;;;;;;;;;5012582;28;20245;-66
2023/04/30 06:19:48;;;;;;;10.57;3.23;;;;;;;;;;5030754;28;20198;-66
2023/04/30 06:22:16;;;;;;;9.97;2.70;;;;;;;;;;5028621;28;20195;-67
2023/04/30 06:24:42;;;;;;;12.10;3.27;;;;;;;;;;5031687;28;20199;-66
2023/04/30 06:27:09;;;;;;;8.33;3.30;;;;;;;;;;5029551;28;20199;-67
2023/04/30 06:29:36;;;;;;;11.70;2.83;;;;;;;;;;5031335;28;20191;-66
2023/04/30 06:32:02;;;;;;;15.07;3.97;;;;;;;;;;5030878;28;20200;-66
2023/04/30 06:34:32;;;;;;;13.80;2.80;;;;;;;;;;5031010;28;20211;-66
2023/04/30 06:36:59;;;;;;;7.83;2.80;;;;;;;;;;5029460;28;20191;-66
2023/04/30 06:39:25;;;;;;;8.60;2.50;;;;;;;;;;5030719;28;20192;-66
2023/04/30 06:41:52;;;;;;;7.17;2.80;;;;;;;;;;5011886;28;20279;-66
2023/04/30 06:44:20;;;;;;;9.47;2.70;;;;;;;;;;5011229;28;20203;-67
2023/04/30 06:46:47;;;;;;;6.53;3.00;;;;;;;;;;5028420;28;20191;-66
2023/04/30 06:49:14;;;;;;;12.03;2.97;;;;;;;;;;5031350;28;20199;-66
2023/04/30 06:51:41;;;;;;;12.67;3.87;;;;;;;;;;5030548;28;20230;-66
2023/04/30 06:54:08;;;;;;;10.43;4.10;;;;;;;;;;5030489;28;20215;-68
2023/04/30 06:56:36;;;;;;;6.53;2.30;;;;;;;;;;5016852;28;20202;-67
2023/04/30 06:59:03;;;;;;;7.00;2.60;;;;;;;;;;5028834;28;20183;-66
2023/04/30 07:01:29;;;;;;;6.50;2.50;;;;;;;;;;5030534;28;20290;-66
2023/04/30 07:03:56;;;;;;;7.93;2.57;;;;;;;;;;5030875;28;20187;-66
2023/04/30 07:06:23;;;;;;;5.90;2.00;;;;;;;;;;5030796;28;20188;-66
2023/04/30 07:08:50;;;;;;;7.73;3.20;;;;;;;;;;5030228;28;20215;-66
2023/04/30 07:11:18;;;;;;;7.13;2.20;;;;;;;;;;5016838;28;20258;-66
2023/04/30 07:13:45;;;;;;;6.90;2.47;;;;;;;;;;5031233;28;20570;-66
2023/04/30 07:16:12;;;;;;;5.47;2.20;;;;;;;;;;5030779;28;20201;-66
2023/04/30 07:18:39;;;;;;;9.00;2.30;;;;;;;;;;5024724;28;20707;-67
2023/04/30 07:21:07;;;;;;;10.23;3.03;;;;;;;;;;5027846;28;20195;-66
2023/04/30 07:23:34;;;;;;;7.57;2.20;;;;;;;;;;5030986;28;20187;-66
2023/04/30 07:26:01;;;;;;;7.53;2.00;;;;;;;;;;5031094;28;20222;-67
2023/04/30 07:28:28;;;;;;;7.30;2.73;;;;;;;;;;5031204;28;20211;-66
2023/04/30 07:30:55;;;;;;;8.20;2.40;;;;;;;;;;5012893;28;20191;-67
2023/04/30 07:33:23;;;;;;;10.43;1.93;;;;;;;;;;5024953;28;20567;-68
2023/04/30 07:35:51;;;;;;;7.07;1.70;;;;;;;;;;5014970;28;20188;-69
2023/04/30 07:38:18;;;;;;;6.47;1.87;;;;;;;;;;5029272;28;20615;-69
2023/04/30 07:40:44;;;;;;;5.07;1.80;;;;;;;;;;5018924;28;20704;-70
2023/04/30 07:43:11;;;;;;;4.23;1.20;;;;;;;;;;5019974;28;20192;-69
2023/04/30 07:45:38;;;;;;;6.30;1.83;;;;;;;;;;5025922;28;20191;-67
2023/04/30 07:48:05;;;;;;;7.03;1.90;;;;;;;;;;5029792;28;20670;-69
2023/04/30 07:50:32;;;;;;;7.07;1.43;;;;;;;;;;5015225;28;20206;-68
2023/04/30 07:53:00;;;;;;;5.37;1.73;;;;;;;;;;4968787;28;20312;-67
2023/04/30 07:55:32;;;;;;;5.93;1.70;;;;;;;;;;4987887;28;20244;-66
2023/04/30 07:58:02;;;;;;;6.70;1.80;;;;;;;;;;4988459;28;20307;-66
2023/04/30 08:00:31;;;;;;;3.57;1.50;;;;;;;;;;4988915;28;20267;-66
2023/04/30 08:03:02;;;;;;;5.70;1.83;;;;;;;;;;4993732;28;20201;-66
2023/04/30 08:05:29;;;;;;;9.00;3.77;;;;;;;;;;4992735;28;20593;-68
2023/04/30 08:07:56;;;;;;;11.43;4.60;;;;;;;;;;4983676;28;20668;-68
2023/04/30 08:10:24;;;;;;;4.90;1.20;;;;;;;;;;4997401;28;20184;-68
2023/04/30 08:12:52;;;;;;;5.17;1.30;;;;;;;;;;4994059;28;20267;-68
2023/04/30 08:15:20;;;;;;;2.83;1.40;;;;;;;;;;4992919;28;20189;-68
2023/04/30 08:17:50;;;;;;;6.37;1.77;;;;;;;;;;5002273;28;20216;-68
2023/04/30 08:20:17;;;;;;;4.77;1.80;;;;;;;;;;5013174;28;20203;-68
2023/04/30 08:22:44;;;;;;;3.30;1.70;;;;;;;;;;5013184;28;20220;-68
2023/04/30 08:25:11;;;;;;;4.90;1.50;;;;;;;;;;4995917;28;20581;-68
2023/04/30 08:27:38;;;;;;;9.50;2.90;;;;;;;;;;4979918;28;20212;-68
2023/04/30 08:30:06;;;;;;;7.43;1.90;;;;;;;;;;5011472;28;20192;-68
2023/04/30 08:32:37;;;;;;;3.63;1.40;;;;;;;;;;5011156;28;20223;-68
2023/04/30 08:35:05;;;;;;;4.93;1.50;;;;;;;;;;5012994;28;20215;-68
2023/04/30 08:37:32;;;;;;;3.17;1.27;;;;;;;;;;4981378;28;20189;-69
2023/04/30 08:39:59;;;;;;;3.23;1.40;;;;;;;;;;4993549;28;20561;-68
2023/04/30 08:42:32;;;;;;;5.57;1.50;;;;;;;;;;5013686;28;20225;-68
2023/04/30 08:45:00;;;;;;;5.27;1.50;;;;;;;;;;4993873;28;20242;-68
2023/04/30 08:47:27;;;;;;;4.63;1.30;;;;;;;;;;4995606;28;20199;-67
2023/04/30 08:49:55;;;;;;;3.53;1.20;;;;;;;;;;5012817;28;20216;-68
2023/04/30 08:52:22;;;;;;;4.07;1.30;;;;;;;;;;4995076;28;20185;-68
2023/04/30 08:54:49;;;;;;;5.93;1.50;;;;;;;;;;4976888;28;20219;-68
2023/04/30 08:57:17;;;;;;;7.17;1.80;;;;;;;;;;4993884;28;20216;-68
2023/04/30 08:59:45;;;;;;;3.57;1.43;;;;;;;;;;5013432;28;20196;-68
2023/04/30 09:02:12;;;;;;;5.23;1.57;;;;;;;;;;4993275;28;20188;-68
2023/04/30 09:04:39;;;;;;;5.70;1.40;;;;;;;;;;4960026;28;20818;-68
2023/04/30 09:07:06;;;;;;;6.70;1.90;;;;;;;;;;5009858;28;20184;-68
2023/04/30 09:09:38;;;;;;;5.37;1.60;;;;;;;;;;5001399;28;20197;-68
2023/04/30 09:12:12;;;;;;;4.30;1.37;;;;;;;;;;5005235;28;20196;-68
2023/04/30 09:14:57;;;;;;;4.23;1.40;;;;;;;;;;5000565;28;20261;-69
2023/04/30 09:17:24;;;;;;;4.10;1.90;;;;;;;;;;5004502;28;20294;-69
2023/04/30 09:19:51;;;;;;;6.93;1.63;;;;;;;;;;5011839;28;20184;-69
2023/04/30 09:22:20;;;;;;;5.07;1.40;;;;;;;;;;4993925;28;20250;-69
2023/04/30 09:24:48;;;;;;;5.53;1.67;;;;;;;;;;5010469;28;20247;-71
2023/04/30 09:27:18;;;;;;;9.63;2.37;;;;;;;;;;4991807;28;20214;-69
2023/04/30 09:29:46;;;;;;;4.60;1.50;;;;;;;;;;4975542;28;20189;-69
2023/04/30 09:32:12;;;;;;;4.03;1.47;;;;;;;;;;5012468;28;20283;-69
2023/04/30 09:34:39;;;;;;;4.67;1.73;;;;;;;;;;5012482;28;20915;-68
2023/04/30 09:37:06;;;;;;;7.63;1.40;;;;;;;;;;5010275;28;20195;-69
2023/04/30 09:39:33;;;;;;;3.77;1.30;;;;;;;;;;5012010;28;20633;-68
2023/04/30 09:42:07;;;;;;;4.13;1.30;;;;;;;;;;4994634;28;20246;-68
2023/04/30 09:44:37;;;;;;;5.10;1.50;;;;;;;;;;5011361;28;20199;-68
2023/04/30 09:47:04;;;;;;;4.60;1.70;;;;;;;;;;5007140;28;20200;-69
2023/04/30 09:49:31;;;;;;;4.47;1.47;;;;;;;;;;4993320;28;20656;-69
2023/04/30 09:51:59;;;;;;;7.20;1.50;;;;;;;;;;4989321;28;20231;-68
2023/04/30 09:54:29;;;;;;;3.47;1.07;;;;;;;;;;5011943;28;20564;-67
2023/04/30 09:56:57;;;;;;;3.30;1.73;;;;;;;;;;5011876;28;20198;-68
2023/04/30 09:59:34;;;;;;;4.03;1.30;;;;;;;;;;5012332;28;20198;-68
2023/04/30 10:02:05;;;;;;;3.10;1.33;;;;;;;;;;4994570;28;20196;-69
2023/04/30 10:04:32;;;;;;;4.33;1.20;;;;;;;;;;5011630;28;20272;-69
2023/04/30 10:07:00;;;;;;;2.83;1.00;;;;;;;;;;4993092;28;20192;-69
2023/04/30 10:09:28;;;;;;;3.03;1.30;;;;;;;;;;4992328;28;20187;-70
2023/04/30 10:11:56;;;;;;;4.27;1.20;;;;;;;;;;4992261;28;20615;-69
2023/04/30 10:14:23;;;;;;;5.50;1.50;;;;;;;;;;5011317;28;20218;-69
2023/04/30 10:16:50;;;;;;;3.83;1.43;;;;;;;;;;5011279;28;20184;-69
2023/04/30 10:19:17;;;;;;;3.37;1.30;;;;;;;;;;4989974;28;20205;-69
2023/04/30 10:21:45;;;;;;;4.77;1.57;;;;;;;;;;4992173;28;20545;-69
2023/04/30 10:24:12;;;;;;;2.57;0.90;;;;;;;;;;4976260;28;20200;-70
2023/04/30 10:26:39;;;;;;;5.20;1.13;;;;;;;;;;4991752;28;20271;-65
2023/04/30 10:29:05;;;;;;;2.53;1.20;;;;;;;;;;4989095;28;20204;-67
2023/04/30 10:31:32;;;;;;;8.17;1.60;;;;;;;;;;4974560;28;20193;-66
2023/04/30 10:34:11;;;;;;;3.23;1.20;;;;;;;;;;4985430;28;20770;-65
2023/04/30 10:36:50;;;;;;;2.33;1.37;;;;;;;;;;4985728;28;20185;-68
2023/04/30 10:39:19;;;;;;;5.20;1.13;;;;;;;;;;4982599;28;20216;-68
2023/04/30 10:41:46;;;;;;;1.90;1.10;;;;;;;;;;4988457;28;20219;-68
2023/04/30 10:44:13;;;;;;;4.47;1.33;;;;;;;;;;4980777;28;20197;-68
2023/04/30 10:46:39;;;;;;;3.83;1.23;;;;;;;;;;5004456;28;20232;-67
2023/04/30 10:49:07;;;;;;;3.40;1.07;;;;;;;;;;4992611;28;20200;-68
2023/04/30 10:51:46;;;;;;;3.67;1.10;;;;;;;;;;4990415;28;20589;-68
2023/04/30 10:54:16;;;;;;;3.43;1.10;;;;;;;;;;4980493;28;20234;-69
2023/04/30 10:56:43;;;;;;;1.87;1.07;;;;;;;;;;4992091;28;20283;-68
2023/04/30 10:59:10;;;;;;;4.13;0.87;;;;;;;;;;5000542;28;20189;-68
2023/04/30 11:02:00;;;;;;;6.03;1.27;;;;;;;;;;4989692;28;20184;-68
2023/04/30 11:04:27;;;;;;;3.07;1.10;;;;;;;;;;4990582;28;20189;-68
2023/04/30 11:07:00;;;;;;;5.23;1.30;;;;;;;;;;4990093;28;20254;-68
2023/04/30 11:09:40;;;;;;;9.90;1.87;;;;;;;;;;5001733;28;20262;-67
2023/04/30 11:12:11;;;;;;;3.40;1.33;;;;;;;;;;4988776;28;20192;-68
2023/04/30 11:14:41;;;;;;;3.53;1.33;;;;;;;;;;4993027;28;20220;-67
2023/04/30 11:17:10;;;;;;;5.77;1.40;;;;;;;;;;4996072;28;20220;-67
2023/04/30 11:19:47;;;;;;;2.37;0.70;;;;;;;;;;5013916;28;20743;-67
2023/04/30 11:22:14;;;;;;;3.13;1.20;;;;;;;;;;5028638;28;20191;-65
2023/04/30 11:24:51;;;;;;;4.77;1.30;;;;;;;;;;5017218;28;20195;-67
2023/04/30 11:27:21;;;;;;;3.57;1.30;;;;;;;;;;5032440;28;20717;-67
2023/04/30 11:29:49;;;;;;;3.70;1.10;;;;;;;;;;5025232;28;20187;-66
2023/04/30 11:32:19;;;;;;;5.53;1.30;;;;;;;;;;5033725;28;20187;-67
2023/04/30 11:34:47;;;;;;;3.97;1.20;;;;;;;;;;5035700;28;20566;-67
2023/04/30 11:37:27;;;;;;;4.97;1.33;;;;;;;;;;5033954;28;20270;-66
2023/04/30 11:39:59;;;;;;;4.00;1.20;;;;;;;;;;5037252;28;20227;-64
2023/04/30 11:42:28;;;;;;;3.37;1.37;;;;;;;;;;5040131;28;20230;-64
2023/04/30 11:45:01;;;;;;;4.77;1.33;;;;;;;;;;5043064;28;20191;-64
2023/04/30 11:47:37;;;;;;;4.27;1.40;;;;;;;;;;5038961;28;20203;-64
2023/04/30 11:50:03;;;;;;;4.43;1.60;;;;;;;;;;5035194;28;20210;-64
2023/04/30 11:52:30;;;;;;;4.37;1.80;;;;;;;;;;5041083;28;20295;-64
2023/04/30 11:54:59;;;;;;;5.13;1.17;;;;;;;;;;5038258;28;20226;-64
2023/04/30 11:57:26;;;;;;;5.43;1.40;;;;;;;;;;5045885;28;20174;-64
2023/04/30 11:59:54;;;;;;;4.27;1.30;;;;;;;;;;5016554;28;20612;-64
2023/04/30 12:02:22;;;;;;;3.90;1.30;;;;;;;;;;5040313;28;20191;-65
2023/04/30 12:04:49;;;;;;;2.60;1.30;;;;;;;;;;5041037;28;20601;-65
2023/04/30 12:07:16;;;;;;;3.50;1.50;;;;;;;;;;5044297;28;20179;-65
2023/04/30 12:09:53;;;;;;;5.17;1.70;;;;;;;;;;5033825;28;20191;-65
2023/04/30 12:12:28;;;;;;;5.37;1.50;;;;;;;;;;5035795;28;20201;-64
2023/04/30 12:14:55;;;;;;;3.70;1.33;;;;;;;;;;5039477;28;20219;-66
2023/04/30 12:17:32;;;;;;;5.20;1.30;;;;;;;;;;5028887;28;20224;-65
2023/04/30 12:20:00;;;;;;;5.73;1.30;;;;;;;;;;5046772;28;20192;-66
2023/04/30 12:22:26;;;;;;;4.57;1.60;;;;;;;;;;5036724;28;20182;-64
2023/04/30 12:24:54;;;;;;;8.07;1.50;;;;;;;;;;5039345;28;20588;-64
2023/04/30 12:27:21;;;;;;;2.50;1.33;;;;;;;;;;5020128;28;20274;-65
2023/04/30 12:29:49;;;;;;;3.57;1.53;;;;;;;;;;5046310;28;20190;-65
2023/04/30 12:32:17;;;;;;;2.37;1.20;;;;;;;;;;5033384;28;20199;-65
2023/04/30 12:34:46;;;;;;;6.57;1.60;;;;;;;;;;5017932;28;20218;-65
2023/04/30 12:37:14;;;;;;;3.67;1.37;;;;;;;;;;5036866;28;20241;-65
2023/04/30 12:39:41;;;;;;;4.17;1.33;;;;;;;;;;5033773;28;20269;-65
2023/04/30 12:42:08;;;;;;;4.20;1.53;;;;;;;;;;5034976;28;20203;-65
2023/04/30 12:44:41;;;;;;;2.57;1.47;;;;;;;;;;5042296;28;20293;-65
2023/04/30 12:47:08;;;;;;;5.23;1.30;;;;;;;;;;5034766;28;20294;-65
2023/04/30 12:49:38;;;;;;;3.10;1.40;;;;;;;;;;5030063;28;20187;-65
2023/04/30 12:52:07;;;;;;;3.20;1.60;;;;;;;;;;5045789;28;20222;-64
2023/04/30 12:54:34;;;;;;;6.43;1.30;;;;;;;;;;5026928;28;20219;-65
2023/04/30 12:57:02;;;;;;;4.30;1.30;;;;;;;;;;5041254;28;20791;-64
2023/04/30 12:59:33;;;;;;;4.13;1.83;;;;;;;;;;5040297;28;20272;-65
2023/04/30 13:02:10;;;;;;;4.10;1.60;;;;;;;;;;5034693;28;20713;-65
2023/04/30 13:04:38;;;;;;;4.03;1.40;;;;;;;;;;5045418;28;20194;-64
2023/04/30 13:07:06;;;;;;;3.87;1.60;;;;;;;;;;5037376;28;20246;-65
2023/04/30 13:09:33;;;;;;;6.63;1.80;;;;;;;;;;5033941;28;20201;-65
2023/04/30 13:12:00;;;;;;;7.37;2.00;;;;;;;;;;5034790;28;20553;-65
2023/04/30 13:14:28;;;;;;;5.07;1.70;;;;;;;;;;5036492;28;20206;-65
2023/04/30 13:16:55;;;;;;;5.77;1.63;;;;;;;;;;5036643;28;20215;-66
2023/04/30 13:19:23;;;;;;;5.27;2.17;;;;;;;;;;5044214;28;20198;-65
2023/04/30 13:21:49;;;;;;;3.27;1.53;;;;;;;;;;5032537;28;20274;-66
2023/04/30 13:24:17;;;;;;;5.37;2.10;;;;;;;;;;5026199;28;20330;-65
2023/04/30 13:26:44;;;;;;;5.13;1.83;;;;;;;;;;5043903;28;20602;-66
2023/04/30 13:29:11;;;;;;;5.70;2.10;;;;;;;;;;5034925;28;20192;-65
2023/04/30 13:31:37;;;;;;;10.33;2.17;;;;;;;;;;5031467;28;20598;-66
2023/04/30 13:34:05;;;;;;;5.77;2.10;;;;;;;;;;5042835;28;20554;-66
2023/04/30 13:36:32;;;;;;;4.67;2.00;;;;;;;;;;5034984;28;20714;-66
2023/04/30 13:38:59;;;;;;;7.57;2.10;;;;;;;;;;5000365;28;20313;-67
2023/04/30 13:41:26;;;;;;;5.53;1.90;;;;;;;;;;5034194;28;20258;-66
2023/04/30 13:43:53;;;;;;;4.50;1.97;;;;;;;;;;5033315;28;20187;-66
2023/04/30 13:46:19;;;;;;;7.80;1.97;;;;;;;;;;5042415;28;20198;-66
2023/04/30 13:48:51;;;;;;;5.80;2.53;;;;;;;;;;5037992;28;20202;-65
2023/04/30 13:51:20;;;;;;;6.53;1.67;;;;;;;;;;5033436;28;20256;-67
2023/04/30 13:53:46;;;;;;;4.20;1.83;;;;;;;;;;5007585;28;20915;-67
2023/04/30 13:56:14;;;;;;;4.77;1.70;;;;;;;;;;5032989;28;20309;-66
2023/04/30 13:58:41;;;;;;;4.43;1.87;;;;;;;;;;5039555;28;20191;-66
2023/04/30 14:01:09;;;;;;;3.60;1.70;;;;;;;;;;5040765;28;20182;-65
2023/04/30 14:03:38;;;;;;;4.67;1.90;;;;;;;;;;5031659;28;20188;-67
2023/04/30 14:06:05;;;;;;;3.83;1.90;;;;;;;;;;5030080;28;20193;-67
2023/04/30 14:08:32;;;;;;;5.33;1.80;;;;;;;;;;5021297;28;20191;-67
2023/04/30 14:10:59;;;;;;;4.47;1.83;;;;;;;;;;5035423;28;20202;-67
2023/04/30 14:13:28;;;;;;;6.30;1.80;;;;;;;;;;5033039;28;20555;-67
2023/04/30 14:15:55;;;;;;;4.90;1.53;;;;;;;;;;5027550;28;20293;-67
2023/04/30 14:18:22;;;;;;;3.93;1.80;;;;;;;;;;5034308;28;20225;-67
2023/04/30 14:20:49;;;;;;;4.10;2.10;;;;;;;;;;5028767;28;20196;-67
2023/04/30 14:23:16;;;;;;;4.77;1.83;;;;;;;;;;5041867;28;20190;-68
2023/04/30 14:25:43;;;;;;;3.37;2.00;;;;;;;;;;5031229;28;20278;-68
2023/04/30 14:28:10;;;;;;;4.57;1.70;;;;;;;;;;5021146;28;20190;-67
2023/04/30 14:30:37;;;;;;;5.07;2.00;;;;;;;;;;5036968;28;20279;-67
2023/04/30 14:33:04;;;;;;;5.63;2.20;;;;;;;;;;5015994;28;20827;-67
2023/04/30 14:35:32;;;;;;;4.33;2.10;;;;;;;;;;4998583;28;20223;-68
2023/04/30 14:37:59;;;;;;;4.93;2.70;;;;;;;;;;5027499;28;20195;-66
2023/04/30 14:40:26;;;;;;;4.93;2.00;;;;;;;;;;5015402;28;20306;-67
2023/04/30 14:42:54;;;;;;;7.87;3.27;;;;;;;;;;5030500;28;20736;-68
2023/04/30 14:45:21;;;;;;;5.30;1.93;;;;;;;;;;5032642;28;20268;-67
2023/04/30 14:47:48;;;;;;;4.90;2.00;;;;;;;;;;5028487;28;20184;-68
2023/04/30 14:50:17;;;;;;;7.13;2.00;;;;;;;;;;5028745;28;20306;-67
2023/04/30 14:52:43;;;;;;;6.27;2.30;;;;;;;;;;5036570;28;20721;-66
2023/04/30 14:55:11;;;;;;;5.23;2.07;;;;;;;;;;5025034;28;20289;-67
2023/04/30 14:57:38;;;;;;;7.07;2.33;;;;;;;;;;5036934;28;20302;-67
2023/04/30 15:00:05;;;;;;;7.73;1.67;;;;;;;;;;5047901;28;20194;-66
2023/04/30 15:02:32;;;;;;;5.07;1.77;;;;;;;;;;5034624;28;20193;-67
2023/04/30 15:04:59;;;;;;;5.77;1.97;;;;;;;;;;5029903;28;20218;-67
2023/04/30 15:07:26;;;;;;;5.67;2.50;;;;;;;;;;5040901;28;20223;-66
2023/04/30 15:09:54;;;;;;;4.80;2.27;;;;;;;;;;5037126;28;20187;-65
2023/04/30 15:12:22;;;;;;;7.17;2.83;;;;;;;;;;5032560;28;20187;-63
2023/04/30 15:14:49;;;;;;;6.83;2.67;;;;;;;;;;5031199;28;20210;-64
2023/04/30 15:17:16;;;;;;;6.77;2.27;;;;;;;;;;5033770;28;20618;-64
2023/04/30 15:19:44;;;;;;;5.13;2.10;;;;;;;;;;5035910;28;20622;-64
2023/04/30 15:22:11;;;;;;;6.90;2.00;;;;;;;;;;5033042;28;20194;-66